sensor_id;sensor_type;location;lat;lon;timestamp;P1;durP1;ratioP1;P2;durP2;ratioP2
79478;SDS011;68943;49.472;17.970;2023-11-22T00:00:57;4.05;;;2.42;;
79478;SDS011;68943;49.472;17.970;2023-11-22T00:03:24;4.80;;;2.85;;
79478;SDS011;68943;49.472;17.970;2023-11-22T00:05:50;5.90;;;3.13;;
79478;SDS011;68943;49.472;17.970;2023-11-22T00:08:16;5.93;;;3.42;;
79478;SDS011;68943;49.472;17.970;2023-11-22T00:10:42;3.97;;;2.42;;
79478;SDS011;68943;49.472;17.970;2023-11-22T00:13:09;3.50;;;2.22;;
79478;SDS011;68943;49.472;17.970;2023-11-22T00:15:36;7.43;;;3.65;;
79478;SDS011;68943;49.472;17.970;2023-11-22T00:18:02;6.32;;;3.42;;
79478;SDS011;68943;49.472;17.970;2023-11-22T00:20:29;4.90;;;3.08;;
79478;SDS011;68943;49.472;17.970;2023-11-22T00:22:55;4.25;;;3.63;;
79478;SDS011;68943;49.472;17.970;2023-11-22T00:25:22;4.68;;;2.33;;
79478;SDS011;68943;49.472;17.970;2023-11-22T00:27:48;6.68;;;4.55;;
79478;SDS011;68943;49.472;17.970;2023-11-22T00:30:14;5.78;;;3.72;;
79478;SDS011;68943;49.472;17.970;2023-11-22T00:32:40;6.25;;;3.20;;
79478;SDS011;68943;49.472;17.970;2023-11-22T00:35:06;7.00;;;3.83;;
79478;SDS011;68943;49.472;17.970;2023-11-22T00:37:33;7.47;;;4.13;;
79478;SDS011;68943;49.472;17.970;2023-11-22T00:40:00;5.07;;;3.90;;
79478;SDS011;68943;49.472;17.970;2023-11-22T00:42:31;7.70;;;3.83;;
79478;SDS011;68943;49.472;17.970;2023-11-22T00:44:58;8.73;;;5.57;;
79478;SDS011;68943;49.472;17.970;2023-11-22T00:47:24;6.90;;;3.15;;
79478;SDS011;68943;49.472;17.970;2023-11-22T00:49:50;8.90;;;4.15;;
79478;SDS011;68943;49.472;17.970;2023-11-22T00:52:16;9.18;;;5.68;;
79478;SDS011;68943;49.472;17.970;2023-11-22T00:54:42;10.32;;;4.78;;
79478;SDS011;68943;49.472;17.970;2023-11-22T00:57:08;3.80;;;2.40;;
79478;SDS011;68943;49.472;17.970;2023-11-22T00:59:34;7.65;;;3.55;;
79478;SDS011;68943;49.472;17.970;2023-11-22T01:02:00;7.50;;;4.30;;
79478;SDS011;68943;49.472;17.970;2023-11-22T01:04:30;7.63;;;4.68;;
79478;SDS011;68943;49.472;17.970;2023-11-22T01:06:59;7.43;;;3.95;;
79478;SDS011;68943;49.472;17.970;2023-11-22T01:09:25;4.82;;;3.08;;
79478;SDS011;68943;49.472;17.970;2023-11-22T01:11:53;7.07;;;3.97;;
79478;SDS011;68943;49.472;17.970;2023-11-22T01:14:19;8.40;;;4.20;;
79478;SDS011;68943;49.472;17.970;2023-11-22T01:16:46;6.65;;;3.63;;
79478;SDS011;68943;49.472;17.970;2023-11-22T01:19:13;11.55;;;6.07;;
79478;SDS011;68943;49.472;17.970;2023-11-22T01:21:39;9.52;;;4.22;;
79478;SDS011;68943;49.472;17.970;2023-11-22T01:24:05;8.98;;;4.22;;
79478;SDS011;68943;49.472;17.970;2023-11-22T01:26:31;10.68;;;5.72;;
79478;SDS011;68943;49.472;17.970;2023-11-22T01:28:57;11.65;;;6.13;;
79478;SDS011;68943;49.472;17.970;2023-11-22T01:31:25;9.73;;;5.38;;
79478;SDS011;68943;49.472;17.970;2023-11-22T01:33:52;8.73;;;4.45;;
79478;SDS011;68943;49.472;17.970;2023-11-22T01:36:18;6.20;;;3.25;;
79478;SDS011;68943;49.472;17.970;2023-11-22T01:38:44;12.30;;;5.53;;
79478;SDS011;68943;49.472;17.970;2023-11-22T01:41:11;8.43;;;5.50;;
79478;SDS011;68943;49.472;17.970;2023-11-22T01:43:40;10.38;;;4.63;;
79478;SDS011;68943;49.472;17.970;2023-11-22T01:46:07;10.00;;;5.82;;
79478;SDS011;68943;49.472;17.970;2023-11-22T01:48:33;7.93;;;5.70;;
79478;SDS011;68943;49.472;17.970;2023-11-22T01:51:01;12.57;;;5.78;;
79478;SDS011;68943;49.472;17.970;2023-11-22T01:53:27;9.32;;;4.68;;
79478;SDS011;68943;49.472;17.970;2023-11-22T01:55:53;6.28;;;3.47;;
79478;SDS011;68943;49.472;17.970;2023-11-22T01:58:20;10.60;;;4.47;;
79478;SDS011;68943;49.472;17.970;2023-11-22T02:00:49;11.25;;;4.43;;
79478;SDS011;68943;49.472;17.970;2023-11-22T02:03:15;8.02;;;3.90;;
79478;SDS011;68943;49.472;17.970;2023-11-22T02:05:42;6.57;;;4.00;;
79478;SDS011;68943;49.472;17.970;2023-11-22T02:08:09;8.32;;;4.30;;
79478;SDS011;68943;49.472;17.970;2023-11-22T02:10:35;11.43;;;5.03;;
79478;SDS011;68943;49.472;17.970;2023-11-22T02:13:02;4.05;;;1.85;;
79478;SDS011;68943;49.472;17.970;2023-11-22T02:15:33;8.93;;;4.15;;
79478;SDS011;68943;49.472;17.970;2023-11-22T02:17:59;7.22;;;3.78;;
79478;SDS011;68943;49.472;17.970;2023-11-22T02:20:25;6.35;;;3.97;;
79478;SDS011;68943;49.472;17.970;2023-11-22T02:22:51;6.55;;;3.13;;
79478;SDS011;68943;49.472;17.970;2023-11-22T02:25:18;6.72;;;3.78;;
79478;SDS011;68943;49.472;17.970;2023-11-22T02:27:45;8.40;;;4.50;;
79478;SDS011;68943;49.472;17.970;2023-11-22T02:30:11;10.35;;;4.03;;
79478;SDS011;68943;49.472;17.970;2023-11-22T02:32:37;6.00;;;3.35;;
79478;SDS011;68943;49.472;17.970;2023-11-22T02:35:06;6.95;;;4.53;;
79478;SDS011;68943;49.472;17.970;2023-11-22T02:37:35;7.65;;;4.30;;
79478;SDS011;68943;49.472;17.970;2023-11-22T02:40:05;9.70;;;4.95;;
79478;SDS011;68943;49.472;17.970;2023-11-22T02:42:32;7.88;;;4.10;;
79478;SDS011;68943;49.472;17.970;2023-11-22T02:44:58;8.45;;;4.63;;
79478;SDS011;68943;49.472;17.970;2023-11-22T02:47:24;8.13;;;4.75;;
79478;SDS011;68943;49.472;17.970;2023-11-22T02:49:51;5.22;;;3.63;;
79478;SDS011;68943;49.472;17.970;2023-11-22T02:52:17;10.57;;;4.93;;
79478;SDS011;68943;49.472;17.970;2023-11-22T02:54:43;8.38;;;5.18;;
79478;SDS011;68943;49.472;17.970;2023-11-22T02:57:11;8.43;;;5.22;;
79478;SDS011;68943;49.472;17.970;2023-11-22T02:59:37;6.30;;;3.50;;
79478;SDS011;68943;49.472;17.970;2023-11-22T03:02:03;9.57;;;4.88;;
79478;SDS011;68943;49.472;17.970;2023-11-22T03:04:29;6.13;;;2.88;;
79478;SDS011;68943;49.472;17.970;2023-11-22T03:06:55;4.97;;;3.45;;
79478;SDS011;68943;49.472;17.970;2023-11-22T03:09:21;4.18;;;3.13;;
79478;SDS011;68943;49.472;17.970;2023-11-22T03:11:48;6.10;;;3.40;;
79478;SDS011;68943;49.472;17.970;2023-11-22T03:14:14;5.13;;;3.92;;
79478;SDS011;68943;49.472;17.970;2023-11-22T03:16:41;7.32;;;4.07;;
79478;SDS011;68943;49.472;17.970;2023-11-22T03:19:07;7.15;;;3.85;;
79478;SDS011;68943;49.472;17.970;2023-11-22T03:21:33;8.70;;;4.50;;
79478;SDS011;68943;49.472;17.970;2023-11-22T03:24:01;4.35;;;1.98;;
79478;SDS011;68943;49.472;17.970;2023-11-22T03:26:29;6.18;;;3.38;;
79478;SDS011;68943;49.472;17.970;2023-11-22T03:28:55;9.98;;;4.10;;
79478;SDS011;68943;49.472;17.970;2023-11-22T03:31:21;5.35;;;3.10;;
79478;SDS011;68943;49.472;17.970;2023-11-22T03:33:47;12.52;;;4.95;;
79478;SDS011;68943;49.472;17.970;2023-11-22T03:36:13;6.97;;;3.67;;
79478;SDS011;68943;49.472;17.970;2023-11-22T03:38:39;7.95;;;4.13;;
79478;SDS011;68943;49.472;17.970;2023-11-22T03:41:05;8.65;;;5.25;;
79478;SDS011;68943;49.472;17.970;2023-11-22T03:43:31;7.70;;;3.67;;
79478;SDS011;68943;49.472;17.970;2023-11-22T03:45:57;14.48;;;6.20;;
79478;SDS011;68943;49.472;17.970;2023-11-22T03:48:23;13.02;;;5.25;;
79478;SDS011;68943;49.472;17.970;2023-11-22T03:50:51;9.50;;;4.95;;
79478;SDS011;68943;49.472;17.970;2023-11-22T03:53:17;11.13;;;4.88;;
79478;SDS011;68943;49.472;17.970;2023-11-22T03:55:45;9.48;;;4.50;;
79478;SDS011;68943;49.472;17.970;2023-11-22T03:58:11;8.75;;;5.50;;
79478;SDS011;68943;49.472;17.970;2023-11-22T04:00:37;8.30;;;3.80;;
79478;SDS011;68943;49.472;17.970;2023-11-22T04:03:03;3.83;;;2.60;;
79478;SDS011;68943;49.472;17.970;2023-11-22T04:05:29;10.30;;;6.00;;
79478;SDS011;68943;49.472;17.970;2023-11-22T04:07:55;11.40;;;5.75;;
79478;SDS011;68943;49.472;17.970;2023-11-22T04:10:21;8.68;;;3.47;;
79478;SDS011;68943;49.472;17.970;2023-11-22T04:12:48;12.05;;;6.15;;
79478;SDS011;68943;49.472;17.970;2023-11-22T04:15:14;13.52;;;6.72;;
79478;SDS011;68943;49.472;17.970;2023-11-22T04:17:40;14.25;;;5.30;;
79478;SDS011;68943;49.472;17.970;2023-11-22T04:20:07;16.25;;;8.43;;
79478;SDS011;68943;49.472;17.970;2023-11-22T04:22:43;16.42;;;7.25;;
79478;SDS011;68943;49.472;17.970;2023-11-22T04:25:12;15.30;;;6.32;;
79478;SDS011;68943;49.472;17.970;2023-11-22T04:27:41;14.88;;;5.57;;
79478;SDS011;68943;49.472;17.970;2023-11-22T04:30:07;11.50;;;4.82;;
79478;SDS011;68943;49.472;17.970;2023-11-22T04:32:35;11.43;;;5.90;;
79478;SDS011;68943;49.472;17.970;2023-11-22T04:35:02;13.25;;;6.22;;
79478;SDS011;68943;49.472;17.970;2023-11-22T04:37:31;12.27;;;5.20;;
79478;SDS011;68943;49.472;17.970;2023-11-22T04:40:00;10.32;;;5.00;;
79478;SDS011;68943;49.472;17.970;2023-11-22T04:42:26;11.65;;;4.70;;
79478;SDS011;68943;49.472;17.970;2023-11-22T04:44:53;12.95;;;6.82;;
79478;SDS011;68943;49.472;17.970;2023-11-22T04:47:19;9.52;;;5.35;;
79478;SDS011;68943;49.472;17.970;2023-11-22T04:49:48;12.43;;;6.60;;
79478;SDS011;68943;49.472;17.970;2023-11-22T04:52:14;7.85;;;4.40;;
79478;SDS011;68943;49.472;17.970;2023-11-22T04:54:40;10.82;;;6.50;;
79478;SDS011;68943;49.472;17.970;2023-11-22T04:57:07;8.10;;;4.95;;
79478;SDS011;68943;49.472;17.970;2023-11-22T04:59:33;8.90;;;4.68;;
79478;SDS011;68943;49.472;17.970;2023-11-22T05:01:59;11.68;;;6.10;;
79478;SDS011;68943;49.472;17.970;2023-11-22T05:04:28;11.88;;;7.05;;
79478;SDS011;68943;49.472;17.970;2023-11-22T05:06:56;11.80;;;7.43;;
79478;SDS011;68943;49.472;17.970;2023-11-22T05:09:22;11.77;;;7.13;;
79478;SDS011;68943;49.472;17.970;2023-11-22T05:11:48;12.95;;;7.68;;
79478;SDS011;68943;49.472;17.970;2023-11-22T05:14:14;14.52;;;7.90;;
79478;SDS011;68943;49.472;17.970;2023-11-22T05:16:40;10.32;;;5.30;;
79478;SDS011;68943;49.472;17.970;2023-11-22T05:19:06;15.85;;;8.77;;
79478;SDS011;68943;49.472;17.970;2023-11-22T05:21:33;14.02;;;7.57;;
79478;SDS011;68943;49.472;17.970;2023-11-22T05:23:59;11.73;;;7.75;;
79478;SDS011;68943;49.472;17.970;2023-11-22T05:26:25;14.80;;;7.88;;
79478;SDS011;68943;49.472;17.970;2023-11-22T05:28:52;11.60;;;5.65;;
79478;SDS011;68943;49.472;17.970;2023-11-22T05:31:21;11.77;;;6.15;;
79478;SDS011;68943;49.472;17.970;2023-11-22T05:33:48;7.55;;;4.45;;
79478;SDS011;68943;49.472;17.970;2023-11-22T05:36:14;11.43;;;7.18;;
79478;SDS011;68943;49.472;17.970;2023-11-22T05:38:41;12.27;;;5.95;;
79478;SDS011;68943;49.472;17.970;2023-11-22T05:41:07;7.82;;;4.03;;
79478;SDS011;68943;49.472;17.970;2023-11-22T05:43:34;8.13;;;5.10;;
79478;SDS011;68943;49.472;17.970;2023-11-22T05:46:02;11.73;;;7.18;;
79478;SDS011;68943;49.472;17.970;2023-11-22T05:48:28;7.47;;;4.30;;
79478;SDS011;68943;49.472;17.970;2023-11-22T05:50:54;11.88;;;6.75;;
79478;SDS011;68943;49.472;17.970;2023-11-22T05:53:20;10.20;;;5.95;;
79478;SDS011;68943;49.472;17.970;2023-11-22T05:55:47;12.27;;;6.57;;
79478;SDS011;68943;49.472;17.970;2023-11-22T05:58:16;9.52;;;5.88;;
79478;SDS011;68943;49.472;17.970;2023-11-22T06:00:45;10.07;;;4.90;;
79478;SDS011;68943;49.472;17.970;2023-11-22T06:03:12;10.27;;;4.72;;
79478;SDS011;68943;49.472;17.970;2023-11-22T06:05:41;14.25;;;7.32;;
79478;SDS011;68943;49.472;17.970;2023-11-22T06:08:07;13.20;;;6.80;;
79478;SDS011;68943;49.472;17.970;2023-11-22T06:10:36;13.35;;;5.32;;
79478;SDS011;68943;49.472;17.970;2023-11-22T06:13:06;14.63;;;7.57;;
79478;SDS011;68943;49.472;17.970;2023-11-22T06:15:33;14.27;;;7.90;;
79478;SDS011;68943;49.472;17.970;2023-11-22T06:17:59;11.23;;;6.78;;
79478;SDS011;68943;49.472;17.970;2023-11-22T06:20:25;15.18;;;8.00;;
79478;SDS011;68943;49.472;17.970;2023-11-22T06:22:52;19.05;;;8.80;;
79478;SDS011;68943;49.472;17.970;2023-11-22T06:25:18;18.48;;;8.02;;
79478;SDS011;68943;49.472;17.970;2023-11-22T06:27:44;11.95;;;7.43;;
79478;SDS011;68943;49.472;17.970;2023-11-22T06:30:10;14.23;;;8.57;;
79478;SDS011;68943;49.472;17.970;2023-11-22T06:32:36;12.10;;;7.25;;
79478;SDS011;68943;49.472;17.970;2023-11-22T06:35:02;12.20;;;6.00;;
79478;SDS011;68943;49.472;17.970;2023-11-22T06:37:28;11.15;;;6.55;;
79478;SDS011;68943;49.472;17.970;2023-11-22T06:39:54;16.70;;;7.40;;
79478;SDS011;68943;49.472;17.970;2023-11-22T06:42:22;19.42;;;12.27;;
79478;SDS011;68943;49.472;17.970;2023-11-22T06:44:48;9.88;;;4.45;;
79478;SDS011;68943;49.472;17.970;2023-11-22T06:47:14;11.98;;;6.55;;
79478;SDS011;68943;49.472;17.970;2023-11-22T06:49:40;15.38;;;7.88;;
79478;SDS011;68943;49.472;17.970;2023-11-22T06:52:06;21.35;;;8.65;;
79478;SDS011;68943;49.472;17.970;2023-11-22T06:54:34;24.38;;;9.40;;
79478;SDS011;68943;49.472;17.970;2023-11-22T06:57:01;12.05;;;6.95;;
79478;SDS011;68943;49.472;17.970;2023-11-22T06:59:28;19.10;;;9.35;;
79478;SDS011;68943;49.472;17.970;2023-11-22T07:01:54;12.73;;;6.53;;
79478;SDS011;68943;49.472;17.970;2023-11-22T07:04:23;8.85;;;5.70;;
79478;SDS011;68943;49.472;17.970;2023-11-22T07:06:49;18.30;;;9.48;;
79478;SDS011;68943;49.472;17.970;2023-11-22T07:09:15;15.32;;;9.63;;
79478;SDS011;68943;49.472;17.970;2023-11-22T07:11:41;14.23;;;6.57;;
79478;SDS011;68943;49.472;17.970;2023-11-22T07:14:09;16.08;;;7.68;;
79478;SDS011;68943;49.472;17.970;2023-11-22T07:16:35;14.38;;;7.45;;
79478;SDS011;68943;49.472;17.970;2023-11-22T07:19:05;12.80;;;6.75;;
79478;SDS011;68943;49.472;17.970;2023-11-22T07:21:32;10.88;;;5.47;;
79478;SDS011;68943;49.472;17.970;2023-11-22T07:23:58;6.53;;;3.58;;
79478;SDS011;68943;49.472;17.970;2023-11-22T07:26:25;13.15;;;7.65;;
79478;SDS011;68943;49.472;17.970;2023-11-22T07:28:55;17.20;;;9.43;;
79478;SDS011;68943;49.472;17.970;2023-11-22T07:31:21;13.20;;;6.75;;
79478;SDS011;68943;49.472;17.970;2023-11-22T07:33:47;17.05;;;6.43;;
79478;SDS011;68943;49.472;17.970;2023-11-22T07:36:13;21.55;;;11.18;;
79478;SDS011;68943;49.472;17.970;2023-11-22T07:38:41;22.65;;;12.07;;
79478;SDS011;68943;49.472;17.970;2023-11-22T07:41:10;17.85;;;9.65;;
79478;SDS011;68943;49.472;17.970;2023-11-22T07:43:36;21.58;;;9.90;;
79478;SDS011;68943;49.472;17.970;2023-11-22T07:46:06;19.85;;;10.93;;
79478;SDS011;68943;49.472;17.970;2023-11-22T07:48:41;16.77;;;10.60;;
79478;SDS011;68943;49.472;17.970;2023-11-22T07:53:33;26.05;;;12.43;;
79478;SDS011;68943;49.472;17.970;2023-11-22T07:56:00;19.23;;;9.90;;
79478;SDS011;68943;49.472;17.970;2023-11-22T07:58:29;15.00;;;8.43;;
79478;SDS011;68943;49.472;17.970;2023-11-22T08:00:56;25.50;;;9.48;;
79478;SDS011;68943;49.472;17.970;2023-11-22T08:03:22;18.45;;;9.77;;
79478;SDS011;68943;49.472;17.970;2023-11-22T08:05:50;19.13;;;9.35;;
79478;SDS011;68943;49.472;17.970;2023-11-22T08:08:20;14.85;;;7.38;;
79478;SDS011;68943;49.472;17.970;2023-11-22T08:10:46;18.35;;;9.25;;
79478;SDS011;68943;49.472;17.970;2023-11-22T08:13:14;17.55;;;8.65;;
79478;SDS011;68943;49.472;17.970;2023-11-22T08:15:40;22.70;;;10.65;;
79478;SDS011;68943;49.472;17.970;2023-11-22T08:18:06;14.02;;;8.32;;
79478;SDS011;68943;49.472;17.970;2023-11-22T08:20:33;15.30;;;9.85;;
79478;SDS011;68943;49.472;17.970;2023-11-22T08:22:59;20.90;;;10.85;;
79478;SDS011;68943;49.472;17.970;2023-11-22T08:25:25;19.35;;;10.13;;
79478;SDS011;68943;49.472;17.970;2023-11-22T08:27:51;15.38;;;8.73;;
79478;SDS011;68943;49.472;17.970;2023-11-22T08:30:18;18.35;;;7.97;;
79478;SDS011;68943;49.472;17.970;2023-11-22T08:32:45;21.00;;;10.23;;
79478;SDS011;68943;49.472;17.970;2023-11-22T08:35:20;22.70;;;10.75;;
79478;SDS011;68943;49.472;17.970;2023-11-22T08:37:48;18.65;;;9.45;;
79478;SDS011;68943;49.472;17.970;2023-11-22T08:40:15;18.50;;;9.75;;
79478;SDS011;68943;49.472;17.970;2023-11-22T08:42:50;18.45;;;9.88;;
79478;SDS011;68943;49.472;17.970;2023-11-22T08:45:16;16.15;;;8.48;;
79478;SDS011;68943;49.472;17.970;2023-11-22T08:47:43;18.65;;;8.60;;
79478;SDS011;68943;49.472;17.970;2023-11-22T08:50:10;16.25;;;9.05;;
79478;SDS011;68943;49.472;17.970;2023-11-22T08:52:36;18.73;;;10.48;;
79478;SDS011;68943;49.472;17.970;2023-11-22T08:55:03;16.83;;;8.35;;
79478;SDS011;68943;49.472;17.970;2023-11-22T08:57:31;16.20;;;8.43;;
79478;SDS011;68943;49.472;17.970;2023-11-22T08:59:57;11.93;;;5.78;;
79478;SDS011;68943;49.472;17.970;2023-11-22T09:02:26;24.77;;;12.05;;
79478;SDS011;68943;49.472;17.970;2023-11-22T09:04:53;20.10;;;8.75;;
79478;SDS011;68943;49.472;17.970;2023-11-22T09:07:19;16.52;;;8.50;;
79478;SDS011;68943;49.472;17.970;2023-11-22T09:09:47;22.85;;;12.10;;
79478;SDS011;68943;49.472;17.970;2023-11-22T09:12:13;18.73;;;10.30;;
79478;SDS011;68943;49.472;17.970;2023-11-22T09:14:39;20.33;;;10.73;;
79478;SDS011;68943;49.472;17.970;2023-11-22T09:17:07;20.63;;;10.50;;
79478;SDS011;68943;49.472;17.970;2023-11-22T09:19:34;15.82;;;8.63;;
79478;SDS011;68943;49.472;17.970;2023-11-22T09:22:01;24.40;;;11.45;;
79478;SDS011;68943;49.472;17.970;2023-11-22T09:24:27;27.20;;;10.80;;
79478;SDS011;68943;49.472;17.970;2023-11-22T09:26:53;21.50;;;10.77;;
79478;SDS011;68943;49.472;17.970;2023-11-22T09:29:19;15.07;;;8.43;;
79478;SDS011;68943;49.472;17.970;2023-11-22T09:31:45;19.38;;;10.15;;
79478;SDS011;68943;49.472;17.970;2023-11-22T09:34:12;22.40;;;9.75;;
79478;SDS011;68943;49.472;17.970;2023-11-22T09:36:38;22.85;;;12.32;;
79478;SDS011;68943;49.472;17.970;2023-11-22T09:39:04;22.00;;;11.15;;
79478;SDS011;68943;49.472;17.970;2023-11-22T09:41:36;21.08;;;9.85;;
79478;SDS011;68943;49.472;17.970;2023-11-22T09:44:02;21.70;;;10.43;;
79478;SDS011;68943;49.472;17.970;2023-11-22T09:46:29;15.63;;;7.53;;
79478;SDS011;68943;49.472;17.970;2023-11-22T09:48:58;28.30;;;14.15;;
79478;SDS011;68943;49.472;17.970;2023-11-22T09:51:28;27.60;;;15.32;;
79478;SDS011;68943;49.472;17.970;2023-11-22T09:53:58;19.70;;;10.07;;
79478;SDS011;68943;49.472;17.970;2023-11-22T09:56:29;20.60;;;10.45;;
79478;SDS011;68943;49.472;17.970;2023-11-22T09:58:58;23.00;;;10.32;;
79478;SDS011;68943;49.472;17.970;2023-11-22T10:01:26;18.70;;;8.52;;
79478;SDS011;68943;49.472;17.970;2023-11-22T10:04:01;23.25;;;10.88;;
79478;SDS011;68943;49.472;17.970;2023-11-22T10:06:30;18.88;;;11.02;;
79478;SDS011;68943;49.472;17.970;2023-11-22T10:08:59;16.02;;;7.25;;
79478;SDS011;68943;49.472;17.970;2023-11-22T10:11:25;24.08;;;12.27;;
79478;SDS011;68943;49.472;17.970;2023-11-22T10:13:53;21.40;;;11.85;;
79478;SDS011;68943;49.472;17.970;2023-11-22T10:16:19;19.95;;;12.23;;
79478;SDS011;68943;49.472;17.970;2023-11-22T10:18:46;24.10;;;11.38;;
79478;SDS011;68943;49.472;17.970;2023-11-22T10:21:26;19.35;;;9.30;;
79478;SDS011;68943;49.472;17.970;2023-11-22T10:23:54;20.88;;;11.55;;
79478;SDS011;68943;49.472;17.970;2023-11-22T10:26:21;14.25;;;8.20;;
79478;SDS011;68943;49.472;17.970;2023-11-22T10:28:50;22.35;;;11.68;;
79478;SDS011;68943;49.472;17.970;2023-11-22T10:31:16;18.42;;;9.60;;
79478;SDS011;68943;49.472;17.970;2023-11-22T10:33:42;24.42;;;12.43;;
79478;SDS011;68943;49.472;17.970;2023-11-22T10:36:08;23.30;;;13.15;;
79478;SDS011;68943;49.472;17.970;2023-11-22T10:38:35;19.13;;;10.10;;
79478;SDS011;68943;49.472;17.970;2023-11-22T10:41:03;24.27;;;14.02;;
79478;SDS011;68943;49.472;17.970;2023-11-22T10:43:29;21.20;;;12.45;;
79478;SDS011;68943;49.472;17.970;2023-11-22T10:45:58;21.90;;;10.90;;
79478;SDS011;68943;49.472;17.970;2023-11-22T10:48:25;21.42;;;9.75;;
79478;SDS011;68943;49.472;17.970;2023-11-22T10:50:52;30.65;;;15.77;;
79478;SDS011;68943;49.472;17.970;2023-11-22T10:53:26;18.00;;;10.45;;
79478;SDS011;68943;49.472;17.970;2023-11-22T10:55:56;20.25;;;10.48;;
79478;SDS011;68943;49.472;17.970;2023-11-22T10:58:23;29.45;;;14.02;;
79478;SDS011;68943;49.472;17.970;2023-11-22T11:00:50;25.85;;;14.30;;
79478;SDS011;68943;49.472;17.970;2023-11-22T11:03:20;27.30;;;15.18;;
79478;SDS011;68943;49.472;17.970;2023-11-22T11:05:55;13.45;;;8.27;;
79478;SDS011;68943;49.472;17.970;2023-11-22T11:08:25;16.40;;;8.23;;
79478;SDS011;68943;49.472;17.970;2023-11-22T11:10:52;21.25;;;11.40;;
79478;SDS011;68943;49.472;17.970;2023-11-22T11:13:22;26.65;;;14.50;;
79478;SDS011;68943;49.472;17.970;2023-11-22T11:15:48;24.30;;;13.50;;
79478;SDS011;68943;49.472;17.970;2023-11-22T11:18:15;30.52;;;16.58;;
79478;SDS011;68943;49.472;17.970;2023-11-22T11:23:15;22.67;;;12.35;;
79478;SDS011;68943;49.472;17.970;2023-11-22T11:25:42;20.40;;;10.13;;
79478;SDS011;68943;49.472;17.970;2023-11-22T11:28:12;24.17;;;12.95;;
79478;SDS011;68943;49.472;17.970;2023-11-22T11:30:45;30.50;;;14.60;;
79478;SDS011;68943;49.472;17.970;2023-11-22T11:33:11;28.13;;;14.63;;
79478;SDS011;68943;49.472;17.970;2023-11-22T11:35:47;27.88;;;13.38;;
79478;SDS011;68943;49.472;17.970;2023-11-22T11:38:14;27.42;;;12.23;;
79478;SDS011;68943;49.472;17.970;2023-11-22T11:40:42;23.58;;;10.75;;
79478;SDS011;68943;49.472;17.970;2023-11-22T11:43:09;26.33;;;14.40;;
79478;SDS011;68943;49.472;17.970;2023-11-22T11:45:37;23.23;;;13.80;;
79478;SDS011;68943;49.472;17.970;2023-11-22T11:48:04;24.13;;;13.85;;
79478;SDS011;68943;49.472;17.970;2023-11-22T11:50:31;26.67;;;13.10;;
79478;SDS011;68943;49.472;17.970;2023-11-22T11:52:57;22.10;;;10.57;;
79478;SDS011;68943;49.472;17.970;2023-11-22T11:55:23;25.65;;;11.70;;
79478;SDS011;68943;49.472;17.970;2023-11-22T11:57:52;24.70;;;12.00;;
79478;SDS011;68943;49.472;17.970;2023-11-22T12:00:19;18.75;;;9.38;;
79478;SDS011;68943;49.472;17.970;2023-11-22T12:02:48;18.75;;;9.95;;
79478;SDS011;68943;49.472;17.970;2023-11-22T12:05:14;17.90;;;10.85;;
79478;SDS011;68943;49.472;17.970;2023-11-22T12:07:40;29.92;;;12.30;;
79478;SDS011;68943;49.472;17.970;2023-11-22T12:10:06;25.15;;;12.68;;
79478;SDS011;68943;49.472;17.970;2023-11-22T12:12:34;30.88;;;13.98;;
79478;SDS011;68943;49.472;17.970;2023-11-22T12:15:01;21.48;;;10.50;;
79478;SDS011;68943;49.472;17.970;2023-11-22T12:17:27;28.88;;;13.25;;
79478;SDS011;68943;49.472;17.970;2023-11-22T12:20:08;13.02;;;7.55;;
79478;SDS011;68943;49.472;17.970;2023-11-22T12:22:34;25.77;;;13.23;;
79478;SDS011;68943;49.472;17.970;2023-11-22T12:25:02;15.10;;;8.02;;
79478;SDS011;68943;49.472;17.970;2023-11-22T12:27:28;21.63;;;9.57;;
79478;SDS011;68943;49.472;17.970;2023-11-22T12:29:54;23.23;;;11.57;;
79478;SDS011;68943;49.472;17.970;2023-11-22T12:32:24;22.35;;;11.18;;
79478;SDS011;68943;49.472;17.970;2023-11-22T12:34:50;28.83;;;12.57;;
79478;SDS011;68943;49.472;17.970;2023-11-22T12:40:21;19.55;;;9.43;;
79478;SDS011;68943;49.472;17.970;2023-11-22T12:42:48;29.88;;;14.10;;
79478;SDS011;68943;49.472;17.970;2023-11-22T12:45:21;12.80;;;7.88;;
79478;SDS011;68943;49.472;17.970;2023-11-22T12:47:50;18.10;;;8.60;;
79478;SDS011;68943;49.472;17.970;2023-11-22T12:53:20;18.88;;;10.32;;
79478;SDS011;68943;49.472;17.970;2023-11-22T12:55:51;16.45;;;10.35;;
79478;SDS011;68943;49.472;17.970;2023-11-22T12:58:19;13.70;;;7.47;;
79478;SDS011;68943;49.472;17.970;2023-11-22T13:00:46;17.52;;;11.82;;
79478;SDS011;68943;49.472;17.970;2023-11-22T13:03:13;18.70;;;9.30;;
79478;SDS011;68943;49.472;17.970;2023-11-22T13:05:39;13.43;;;7.35;;
79478;SDS011;68943;49.472;17.970;2023-11-22T13:08:09;16.95;;;9.18;;
79478;SDS011;68943;49.472;17.970;2023-11-22T13:10:38;12.43;;;6.75;;
79478;SDS011;68943;49.472;17.970;2023-11-22T13:13:04;14.00;;;8.38;;
79478;SDS011;68943;49.472;17.970;2023-11-22T13:15:35;10.80;;;6.65;;
79478;SDS011;68943;49.472;17.970;2023-11-22T13:18:01;11.15;;;6.05;;
79478;SDS011;68943;49.472;17.970;2023-11-22T13:20:27;14.10;;;7.50;;
79478;SDS011;68943;49.472;17.970;2023-11-22T13:22:56;13.50;;;7.55;;
79478;SDS011;68943;49.472;17.970;2023-11-22T13:25:24;11.63;;;6.63;;
79478;SDS011;68943;49.472;17.970;2023-11-22T13:27:51;14.13;;;7.45;;
79478;SDS011;68943;49.472;17.970;2023-11-22T13:30:18;19.67;;;7.70;;
79478;SDS011;68943;49.472;17.970;2023-11-22T13:35:14;21.65;;;9.80;;
79478;SDS011;68943;49.472;17.970;2023-11-22T13:37:42;17.00;;;9.88;;
79478;SDS011;68943;49.472;17.970;2023-11-22T13:40:09;9.88;;;5.43;;
79478;SDS011;68943;49.472;17.970;2023-11-22T13:42:41;17.63;;;12.60;;
79478;SDS011;68943;49.472;17.970;2023-11-22T13:45:08;13.93;;;8.15;;
79478;SDS011;68943;49.472;17.970;2023-11-22T13:47:34;11.32;;;6.63;;
79478;SDS011;68943;49.472;17.970;2023-11-22T13:50:01;17.35;;;8.27;;
79478;SDS011;68943;49.472;17.970;2023-11-22T13:52:28;12.50;;;7.25;;
79478;SDS011;68943;49.472;17.970;2023-11-22T13:54:55;17.13;;;9.55;;
79478;SDS011;68943;49.472;17.970;2023-11-22T13:57:22;14.68;;;8.07;;
79478;SDS011;68943;49.472;17.970;2023-11-22T14:02:52;23.00;;;10.48;;
79478;SDS011;68943;49.472;17.970;2023-11-22T14:05:24;19.30;;;10.98;;
79478;SDS011;68943;49.472;17.970;2023-11-22T14:07:50;26.25;;;12.27;;
79478;SDS011;68943;49.472;17.970;2023-11-22T14:10:17;17.25;;;10.35;;
79478;SDS011;68943;49.472;17.970;2023-11-22T14:15:49;13.95;;;7.18;;
79478;SDS011;68943;49.472;17.970;2023-11-22T14:18:16;25.60;;;13.05;;
79478;SDS011;68943;49.472;17.970;2023-11-22T14:20:42;13.77;;;7.90;;
79478;SDS011;68943;49.472;17.970;2023-11-22T14:23:08;16.60;;;9.73;;
79478;SDS011;68943;49.472;17.970;2023-11-22T14:25:34;15.55;;;7.95;;
79478;SDS011;68943;49.472;17.970;2023-11-22T14:28:00;20.48;;;9.95;;
79478;SDS011;68943;49.472;17.970;2023-11-22T14:30:36;21.15;;;10.73;;
79478;SDS011;68943;49.472;17.970;2023-11-22T14:33:03;21.35;;;10.85;;
79478;SDS011;68943;49.472;17.970;2023-11-22T14:35:33;13.95;;;8.30;;
79478;SDS011;68943;49.472;17.970;2023-11-22T14:38:03;23.98;;;11.27;;
79478;SDS011;68943;49.472;17.970;2023-11-22T14:40:30;7.07;;;4.57;;